Monday, October 16, 2017, 8:27 PM EDT
Back to Local

KJST, Johnstown-cambria Co Airport

Location: Johnstown, PA, United States Lat: 40.317
Local Time: 8:27 PM EDT ( 0:27 GMT) Lon: -78.833
Time Zone: US/Eastern Elev: 2283 ft

Show me the last for .
Show Decoded

2017-10-16 19:54 METAR KJST 162354Z AUTO 33007KT 10SM CLR 07/01 A3022 RMK AO2 SLP245 60000
                 T00670006 10122 20067 53014 =
2017-10-16 18:54 METAR KJST 162254Z AUTO 33010KT 10SM FEW042 SCT065 08/01 A3020 RMK AO2 SLP239
                 T00780011 =
2017-10-16 17:54 METAR KJST 162154Z AUTO 33010KT 10SM FEW060 09/02 A3019 RMK AO2 SLP231 T00890017
                 =
2017-10-16 16:54 METAR KJST 162054Z AUTO 32011KT 10SM FEW036 SCT049 10/02 A3018 RMK AO2
                 RAB1957E09 SLP225 P0000 60000 T01000022 53004 =
2017-10-16 15:54 METAR KJST 161954Z AUTO 31016KT 10SM FEW041 SCT060 10/01 A3017 RMK AO2 SLP222
                 T01000011 =
2017-10-16 14:54 METAR KJST 161854Z AUTO 30011KT 10SM FEW040 SCT055 11/01 A3016 RMK AO2 SLP216
                 T01060006 =
2017-10-16 13:54 METAR KJST 161754Z AUTO 30014G24KT 10SM FEW041 11/01 A3017 RMK AO2 SLP218
                 T01060011 10111 20061 50002 =
2017-10-16 12:54 METAR KJST 161654Z AUTO 31019G25KT 10SM BKN040 11/01 A3017 RMK AO2 SLP219
                 T01110006 =
2017-10-16 11:54 METAR KJST 161554Z AUTO 30012KT 10SM SCT033 10/02 A3017 RMK AO2 SLP218 T01000017
                 =
2017-10-16 10:54 METAR KJST 161454Z AUTO 33015G21KT 10SM SCT030 BKN037 10/02 A3016 RMK AO2 SLP214
                 T01000022 51016 =
2017-10-16 09:54 METAR KJST 161354Z AUTO 31012KT 10SM CLR 08/02 A3014 RMK AO2 SLP210 T00780022 =
2017-10-16 08:54 METAR KJST 161254Z AUTO 34009G17KT 10SM CLR 07/02 A3014 RMK AO2 SLP207 T00720022
                 =
2017-10-16 08:39 METAR KJST 161239Z AUTO 33006KT 10SM SCT021 07/02 A3013 RMK AO2 T00670022 =
2017-10-16 07:54 METAR KJST 161154Z AUTO 32009G18KT 10SM SCT013 SCT019 OVC025 06/03 A3011 RMK AO2
                 SLP194 60000 70029 T00610033 10111 20061 53016 =
2017-10-16 07:11 METAR KJST 161111Z AUTO 32011G17KT 10SM OVC013 07/04 A3009 RMK AO2 T00670044 =
2017-10-16 06:54 METAR KJST 161054Z AUTO 33011G17KT 10SM BKN015 07/04 A3008 RMK AO2 SLP183
                 T00670044 =
2017-10-16 06:50 METAR KJST 161050Z AUTO 32008KT 10SM BKN014 BKN021 07/04 A3008 RMK AO2 =
2017-10-16 06:10 METAR KJST 161010Z AUTO 31009G18KT 10SM BKN015 OVC022 08/06 A3006 RMK AO2
                 T00780056 =
2017-10-16 05:54 METAR KJST 160954Z AUTO 32010KT 10SM BKN014 BKN020 OVC028 08/06 A3006 RMK AO2
                 SLP175 T00780056 =
2017-10-16 05:52 METAR KJST 160952Z AUTO 31010KT 10SM BKN014 BKN020 OVC026 08/06 A3006 RMK AO2 =
2017-10-16 05:43 METAR KJST 160943Z AUTO 33010KT 10SM SCT014 BKN020 OVC028 08/05 A3005 RMK AO2
                 T00780050 =
2017-10-16 04:54 METAR KJST 160854Z AUTO 32010KT 10SM BKN013 OVC022 08/06 A3005 RMK AO2 SLP169
                 60000 T00830061 53012 =
2017-10-16 04:37 METAR KJST 160837Z AUTO 32011KT 10SM OVC012 08/07 A3004 RMK AO2 T00830067 =
2017-10-16 03:54 METAR KJST 160754Z AUTO 32013KT 10SM OVC009 09/08 A3003 RMK AO2 RAB00E18 CIG
                 008V012 SLP161 P0000 T00940078 =
2017-10-16 03:45 METAR KJST 160745Z AUTO 33014G19KT 10SM BKN009 OVC023 09/08 A3002 RMK AO2
                 RAB00E18 CIG 008V013 P0000 T00940078 =
2017-10-16 02:54 METAR KJST 160654Z AUTO 30016G20KT 10SM BKN014 OVC020 11/09 A3002 RMK AO2 SLP156
                 T01110089 =
2017-10-16 02:36 METAR KJST 160636Z AUTO 28013KT 10SM OVC015 11/09 A3002 RMK AO2 T01110089 =
2017-10-16 01:54 METAR KJST 160554Z AUTO 28016G22KT 10SM BKN014 OVC021 11/09 A3001 RMK AO2 SLP154
                 60029 T01110089 10211 20111 53010 =
2017-10-16 01:44 METAR KJST 160544Z AUTO 28010G17KT 10SM BKN014 OVC021 12/09 A3001 RMK AO2
                 T01170094 =
2017-10-16 00:54 METAR KJST 160454Z AUTO 29010KT 10SM SCT015 BKN025 BKN038 12/09 A3000 RMK AO2
                 SLP149 T01220094 402440122 =
2017-10-16 00:16 METAR KJST 160416Z AUTO 30011KT 10SM FEW013 BKN018 OVC037 13/11 A2999 RMK AO2
                 T01280106 =
2017-10-16 00:02 METAR KJST 160402Z AUTO 29010G19KT 10SM FEW012 SCT018 OVC035 13/11 A2998 RMK AO2
                 T01280106 =
2017-10-15 23:54 METAR KJST 160354Z AUTO 29012KT 10SM FEW012 BKN018 OVC035 13/11 A2998 RMK AO2
                 SLP141 T01280106 =
2017-10-15 23:09 METAR KJST 160309Z AUTO 29011G23KT 10SM FEW013 BKN018 OVC040 13/11 A2997 RMK AO2
                 T01330111 =
2017-10-15 22:54 METAR KJST 160254Z AUTO 27011KT 10SM BKN013 BKN017 OVC080 13/12 A2998 RMK AO2
                 SLP143 60029 T01330117 51034 =
2017-10-15 22:12 METAR KJST 160212Z AUTO 30012KT 10SM BKN011 OVC020 14/12 A2996 RMK AO2 T01390122
                 =
2017-10-15 21:54 METAR KJST 160154Z AUTO 27007KT 10SM BKN018 BKN070 OVC085 14/12 A2995 RMK AO2
                 RAE39 SLP134 P0003 T01390122 =
2017-10-15 21:32 METAR KJST 160132Z AUTO 29013G23KT 10SM -RA FEW006 BKN017 OVC065 14/13 A2995 RMK
                 AO2 P0003 T01440128 =
2017-10-15 20:54 METAR KJST 160054Z AUTO 30008KT 6SM RA BR BKN005 BKN009 OVC015 16/15 A2993 RMK
                 AO2 PK WND 32032/0002 WSHFT 2350 RAB2359 CIG 003V008 SLP128 P0026 T01610150 =

Support USWX by starting your Amazon purchase here.